sensor_id;sensor_type;location;lat;lon;timestamp;temperature;humidity
52159;DHT22;38145;53.182;6.284;2023-04-24T00:01:22;11.60;99.90
52159;DHT22;38145;53.182;6.284;2023-04-24T00:03:48;11.60;99.90
52159;DHT22;38145;53.182;6.284;2023-04-24T00:06:14;11.50;99.90
52159;DHT22;38145;53.182;6.284;2023-04-24T00:08:42;11.50;99.90
52159;DHT22;38145;53.182;6.284;2023-04-24T00:11:08;11.50;99.90
52159;DHT22;38145;53.182;6.284;2023-04-24T00:13:35;11.40;99.90
52159;DHT22;38145;53.182;6.284;2023-04-24T00:16:01;11.50;99.90
52159;DHT22;38145;53.182;6.284;2023-04-24T00:18:27;11.40;99.90
52159;DHT22;38145;53.182;6.284;2023-04-24T00:20:53;11.40;99.90
52159;DHT22;38145;53.182;6.284;2023-04-24T00:23:19;11.50;99.90
52159;DHT22;38145;53.182;6.284;2023-04-24T00:25:45;11.40;99.90
52159;DHT22;38145;53.182;6.284;2023-04-24T00:28:10;11.30;99.90
52159;DHT22;38145;53.182;6.284;2023-04-24T00:30:36;11.30;99.90
52159;DHT22;38145;53.182;6.284;2023-04-24T00:33:03;11.30;99.90
52159;DHT22;38145;53.182;6.284;2023-04-24T00:35:28;11.30;99.90
52159;DHT22;38145;53.182;6.284;2023-04-24T00:37:54;11.20;99.90
52159;DHT22;38145;53.182;6.284;2023-04-24T00:40:20;11.20;99.90
52159;DHT22;38145;53.182;6.284;2023-04-24T00:42:46;11.20;99.90
52159;DHT22;38145;53.182;6.284;2023-04-24T00:45:12;11.10;99.90
52159;DHT22;38145;53.182;6.284;2023-04-24T00:47:38;11.10;99.90
52159;DHT22;38145;53.182;6.284;2023-04-24T00:50:06;11.00;99.90
52159;DHT22;38145;53.182;6.284;2023-04-24T00:52:32;11.10;99.90
52159;DHT22;38145;53.182;6.284;2023-04-24T00:54:58;11.00;99.90
52159;DHT22;38145;53.182;6.284;2023-04-24T00:57:25;11.10;99.90
52159;DHT22;38145;53.182;6.284;2023-04-24T00:59:52;11.10;99.90
52159;DHT22;38145;53.182;6.284;2023-04-24T01:02:19;11.00;99.90
52159;DHT22;38145;53.182;6.284;2023-04-24T01:04:46;11.00;99.90
52159;DHT22;38145;53.182;6.284;2023-04-24T01:07:11;11.00;99.90
52159;DHT22;38145;53.182;6.284;2023-04-24T01:09:40;11.00;99.90
52159;DHT22;38145;53.182;6.284;2023-04-24T01:12:07;11.00;99.90
52159;DHT22;38145;53.182;6.284;2023-04-24T01:14:33;11.00;99.90
52159;DHT22;38145;53.182;6.284;2023-04-24T01:16:59;10.90;99.90
52159;DHT22;38145;53.182;6.284;2023-04-24T01:19:25;10.90;99.90
52159;DHT22;38145;53.182;6.284;2023-04-24T01:21:53;10.90;99.90
52159;DHT22;38145;53.182;6.284;2023-04-24T01:24:20;10.90;99.90
52159;DHT22;38145;53.182;6.284;2023-04-24T01:26:46;10.90;99.90
52159;DHT22;38145;53.182;6.284;2023-04-24T01:29:12;10.90;99.90
52159;DHT22;38145;53.182;6.284;2023-04-24T01:31:39;10.90;99.90
52159;DHT22;38145;53.182;6.284;2023-04-24T01:34:06;10.90;99.90
52159;DHT22;38145;53.182;6.284;2023-04-24T01:36:33;10.80;99.90
52159;DHT22;38145;53.182;6.284;2023-04-24T01:39:00;10.90;99.90
52159;DHT22;38145;53.182;6.284;2023-04-24T01:41:26;10.90;99.90
52159;DHT22;38145;53.182;6.284;2023-04-24T01:43:53;10.80;99.90
52159;DHT22;38145;53.182;6.284;2023-04-24T01:46:20;10.90;99.90
52159;DHT22;38145;53.182;6.284;2023-04-24T01:48:46;10.90;99.90
52159;DHT22;38145;53.182;6.284;2023-04-24T01:51:12;10.80;99.90
52159;DHT22;38145;53.182;6.284;2023-04-24T01:53:38;10.80;99.90
52159;DHT22;38145;53.182;6.284;2023-04-24T01:56:05;10.90;99.90
52159;DHT22;38145;53.182;6.284;2023-04-24T01:58:31;10.90;99.90
52159;DHT22;38145;53.182;6.284;2023-04-24T02:00:57;10.80;99.90
52159;DHT22;38145;53.182;6.284;2023-04-24T02:03:25;10.80;99.90
52159;DHT22;38145;53.182;6.284;2023-04-24T02:05:51;10.80;99.90
52159;DHT22;38145;53.182;6.284;2023-04-24T02:08:17;10.80;99.90
52159;DHT22;38145;53.182;6.284;2023-04-24T02:10:43;10.80;99.90
52159;DHT22;38145;53.182;6.284;2023-04-24T02:13:09;10.70;99.90
52159;DHT22;38145;53.182;6.284;2023-04-24T02:15:35;10.70;99.90
52159;DHT22;38145;53.182;6.284;2023-04-24T02:18:01;10.60;99.90
52159;DHT22;38145;53.182;6.284;2023-04-24T02:20:27;10.60;99.90
52159;DHT22;38145;53.182;6.284;2023-04-24T02:22:53;10.70;99.90
52159;DHT22;38145;53.182;6.284;2023-04-24T02:25:19;10.60;99.90
52159;DHT22;38145;53.182;6.284;2023-04-24T02:27:45;10.60;99.90
52159;DHT22;38145;53.182;6.284;2023-04-24T02:30:11;10.70;99.90
52159;DHT22;38145;53.182;6.284;2023-04-24T02:32:37;10.70;99.90
52159;DHT22;38145;53.182;6.284;2023-04-24T02:35:05;10.70;99.90
52159;DHT22;38145;53.182;6.284;2023-04-24T02:37:31;10.60;99.90
52159;DHT22;38145;53.182;6.284;2023-04-24T02:39:57;10.60;99.90
52159;DHT22;38145;53.182;6.284;2023-04-24T02:42:23;10.60;99.90
52159;DHT22;38145;53.182;6.284;2023-04-24T02:44:49;10.50;99.90
52159;DHT22;38145;53.182;6.284;2023-04-24T02:47:17;10.50;99.90
52159;DHT22;38145;53.182;6.284;2023-04-24T02:49:43;10.50;99.90
52159;DHT22;38145;53.182;6.284;2023-04-24T02:52:09;10.40;99.90
52159;DHT22;38145;53.182;6.284;2023-04-24T02:54:35;10.40;99.90
52159;DHT22;38145;53.182;6.284;2023-04-24T02:57:00;10.50;99.90
52159;DHT22;38145;53.182;6.284;2023-04-24T02:59:26;10.40;99.90
52159;DHT22;38145;53.182;6.284;2023-04-24T03:01:55;10.50;99.90
52159;DHT22;38145;53.182;6.284;2023-04-24T03:04:21;10.50;99.90
52159;DHT22;38145;53.182;6.284;2023-04-24T03:06:48;10.40;99.90
52159;DHT22;38145;53.182;6.284;2023-04-24T03:09:14;10.50;99.90
52159;DHT22;38145;53.182;6.284;2023-04-24T03:11:40;10.50;99.90
52159;DHT22;38145;53.182;6.284;2023-04-24T03:14:06;10.40;99.90
52159;DHT22;38145;53.182;6.284;2023-04-24T03:16:32;10.40;99.90
52159;DHT22;38145;53.182;6.284;2023-04-24T03:18:58;10.50;99.90
52159;DHT22;38145;53.182;6.284;2023-04-24T03:21:24;10.40;99.90
52159;DHT22;38145;53.182;6.284;2023-04-24T03:23:50;10.40;99.90
52159;DHT22;38145;53.182;6.284;2023-04-24T03:26:16;10.40;99.90
52159;DHT22;38145;53.182;6.284;2023-04-24T03:28:41;10.40;99.90
52159;DHT22;38145;53.182;6.284;2023-04-24T03:31:07;10.40;99.90
52159;DHT22;38145;53.182;6.284;2023-04-24T03:33:33;10.40;99.90
52159;DHT22;38145;53.182;6.284;2023-04-24T03:35:59;10.50;99.90
52159;DHT22;38145;53.182;6.284;2023-04-24T03:38:25;10.50;99.90
52159;DHT22;38145;53.182;6.284;2023-04-24T03:40:51;10.40;99.90
52159;DHT22;38145;53.182;6.284;2023-04-24T03:43:17;10.40;99.90
52159;DHT22;38145;53.182;6.284;2023-04-24T03:45:42;10.40;99.90
52159;DHT22;38145;53.182;6.284;2023-04-24T03:48:08;10.40;99.90
52159;DHT22;38145;53.182;6.284;2023-04-24T03:50:34;10.40;99.90
52159;DHT22;38145;53.182;6.284;2023-04-24T03:53:00;10.40;99.90
52159;DHT22;38145;53.182;6.284;2023-04-24T03:55:26;10.40;99.90
52159;DHT22;38145;53.182;6.284;2023-04-24T03:57:52;10.30;99.90
52159;DHT22;38145;53.182;6.284;2023-04-24T04:00:18;10.40;99.90
52159;DHT22;38145;53.182;6.284;2023-04-24T04:02:44;10.40;99.90
52159;DHT22;38145;53.182;6.284;2023-04-24T04:05:10;10.30;99.90
52159;DHT22;38145;53.182;6.284;2023-04-24T04:07:36;10.40;99.90
52159;DHT22;38145;53.182;6.284;2023-04-24T04:10:01;10.40;99.90
52159;DHT22;38145;53.182;6.284;2023-04-24T04:12:27;10.40;99.90
52159;DHT22;38145;53.182;6.284;2023-04-24T04:14:53;10.40;99.90
52159;DHT22;38145;53.182;6.284;2023-04-24T04:17:19;10.40;99.90
52159;DHT22;38145;53.182;6.284;2023-04-24T04:19:45;10.40;99.90
52159;DHT22;38145;53.182;6.284;2023-04-24T04:22:11;10.20;99.90
52159;DHT22;38145;53.182;6.284;2023-04-24T04:24:36;10.30;99.90
52159;DHT22;38145;53.182;6.284;2023-04-24T04:27:04;10.30;99.90
52159;DHT22;38145;53.182;6.284;2023-04-24T04:29:31;10.20;99.90
52159;DHT22;38145;53.182;6.284;2023-04-24T04:31:58;10.20;99.90
52159;DHT22;38145;53.182;6.284;2023-04-24T04:34:24;10.10;99.90
52159;DHT22;38145;53.182;6.284;2023-04-24T04:36:50;10.10;99.90
52159;DHT22;38145;53.182;6.284;2023-04-24T04:39:16;10.20;99.90
52159;DHT22;38145;53.182;6.284;2023-04-24T04:41:44;10.20;99.90
52159;DHT22;38145;53.182;6.284;2023-04-24T04:44:12;10.20;99.90
52159;DHT22;38145;53.182;6.284;2023-04-24T04:46:38;10.00;99.90
52159;DHT22;38145;53.182;6.284;2023-04-24T04:49:04;10.10;99.90
52159;DHT22;38145;53.182;6.284;2023-04-24T04:51:30;10.10;99.90
52159;DHT22;38145;53.182;6.284;2023-04-24T04:53:56;10.00;99.90
52159;DHT22;38145;53.182;6.284;2023-04-24T04:56:22;10.00;99.90
52159;DHT22;38145;53.182;6.284;2023-04-24T04:58:48;10.00;99.90
52159;DHT22;38145;53.182;6.284;2023-04-24T05:01:14;10.10;99.90
52159;DHT22;38145;53.182;6.284;2023-04-24T05:03:40;9.90;99.90
52159;DHT22;38145;53.182;6.284;2023-04-24T05:06:06;9.90;99.90
52159;DHT22;38145;53.182;6.284;2023-04-24T05:08:32;10.00;99.90
52159;DHT22;38145;53.182;6.284;2023-04-24T05:10:58;10.10;99.90
52159;DHT22;38145;53.182;6.284;2023-04-24T05:13:24;10.00;99.90
52159;DHT22;38145;53.182;6.284;2023-04-24T05:15:49;10.00;99.90
52159;DHT22;38145;53.182;6.284;2023-04-24T05:18:15;9.80;99.90
52159;DHT22;38145;53.182;6.284;2023-04-24T05:20:42;9.90;99.90
52159;DHT22;38145;53.182;6.284;2023-04-24T05:23:09;10.00;99.90
52159;DHT22;38145;53.182;6.284;2023-04-24T05:25:35;10.00;99.90
52159;DHT22;38145;53.182;6.284;2023-04-24T05:28:02;9.80;99.90
52159;DHT22;38145;53.182;6.284;2023-04-24T05:30:28;9.90;99.90
52159;DHT22;38145;53.182;6.284;2023-04-24T05:32:54;9.80;99.90
52159;DHT22;38145;53.182;6.284;2023-04-24T05:35:20;9.80;99.90
52159;DHT22;38145;53.182;6.284;2023-04-24T05:37:46;9.70;99.90
52159;DHT22;38145;53.182;6.284;2023-04-24T05:40:12;9.70;99.90
52159;DHT22;38145;53.182;6.284;2023-04-24T05:42:38;9.60;99.90
52159;DHT22;38145;53.182;6.284;2023-04-24T05:45:05;9.70;99.90
52159;DHT22;38145;53.182;6.284;2023-04-24T05:47:31;9.70;99.90
52159;DHT22;38145;53.182;6.284;2023-04-24T05:49:57;9.70;99.90
52159;DHT22;38145;53.182;6.284;2023-04-24T05:52:23;9.70;99.90
52159;DHT22;38145;53.182;6.284;2023-04-24T05:54:49;9.80;99.90
52159;DHT22;38145;53.182;6.284;2023-04-24T05:57:15;9.70;99.90
52159;DHT22;38145;53.182;6.284;2023-04-24T05:59:41;9.80;99.90
52159;DHT22;38145;53.182;6.284;2023-04-24T06:02:07;9.70;99.90
52159;DHT22;38145;53.182;6.284;2023-04-24T06:04:33;9.80;99.90
52159;DHT22;38145;53.182;6.284;2023-04-24T06:06:59;9.80;99.90
52159;DHT22;38145;53.182;6.284;2023-04-24T06:09:26;9.80;99.90
52159;DHT22;38145;53.182;6.284;2023-04-24T06:11:51;9.70;99.90
52159;DHT22;38145;53.182;6.284;2023-04-24T06:14:19;9.80;99.90
52159;DHT22;38145;53.182;6.284;2023-04-24T06:16:45;9.70;99.90
52159;DHT22;38145;53.182;6.284;2023-04-24T06:19:11;9.80;99.90
52159;DHT22;38145;53.182;6.284;2023-04-24T06:21:37;9.70;99.90
52159;DHT22;38145;53.182;6.284;2023-04-24T06:24:03;9.80;99.90
52159;DHT22;38145;53.182;6.284;2023-04-24T06:26:30;9.80;99.90
52159;DHT22;38145;53.182;6.284;2023-04-24T06:28:56;9.80;99.90
52159;DHT22;38145;53.182;6.284;2023-04-24T06:31:24;9.70;99.90
52159;DHT22;38145;53.182;6.284;2023-04-24T06:33:50;9.80;99.90
52159;DHT22;38145;53.182;6.284;2023-04-24T06:36:16;9.70;99.90
52159;DHT22;38145;53.182;6.284;2023-04-24T06:38:42;9.60;99.90
52159;DHT22;38145;53.182;6.284;2023-04-24T06:41:09;9.70;99.90
52159;DHT22;38145;53.182;6.284;2023-04-24T06:43:35;9.70;99.90
52159;DHT22;38145;53.182;6.284;2023-04-24T06:46:01;9.60;99.90
52159;DHT22;38145;53.182;6.284;2023-04-24T06:48:28;9.60;99.90
52159;DHT22;38145;53.182;6.284;2023-04-24T06:50:55;9.70;99.90
52159;DHT22;38145;53.182;6.284;2023-04-24T06:53:21;9.60;99.90
52159;DHT22;38145;53.182;6.284;2023-04-24T06:55:46;9.60;99.90
52159;DHT22;38145;53.182;6.284;2023-04-24T06:58:12;9.60;99.90
52159;DHT22;38145;53.182;6.284;2023-04-24T07:00:38;9.60;99.90
52159;DHT22;38145;53.182;6.284;2023-04-24T07:03:04;9.50;99.90
52159;DHT22;38145;53.182;6.284;2023-04-24T07:05:31;9.40;99.90
52159;DHT22;38145;53.182;6.284;2023-04-24T07:07:59;9.50;99.90
52159;DHT22;38145;53.182;6.284;2023-04-24T07:10:26;9.50;99.90
52159;DHT22;38145;53.182;6.284;2023-04-24T07:12:54;9.40;99.90
52159;DHT22;38145;53.182;6.284;2023-04-24T07:15:20;9.40;99.90
52159;DHT22;38145;53.182;6.284;2023-04-24T07:17:46;9.40;99.90
52159;DHT22;38145;53.182;6.284;2023-04-24T07:20:12;9.40;99.90
52159;DHT22;38145;53.182;6.284;2023-04-24T07:22:40;9.40;99.90
52159;DHT22;38145;53.182;6.284;2023-04-24T07:25:06;9.40;99.90
52159;DHT22;38145;53.182;6.284;2023-04-24T07:27:33;9.40;99.90
52159;DHT22;38145;53.182;6.284;2023-04-24T07:29:59;9.30;99.90
52159;DHT22;38145;53.182;6.284;2023-04-24T07:32:25;9.30;99.90
52159;DHT22;38145;53.182;6.284;2023-04-24T07:34:51;9.30;99.90
52159;DHT22;38145;53.182;6.284;2023-04-24T07:37:17;9.20;99.90
52159;DHT22;38145;53.182;6.284;2023-04-24T07:39:43;9.30;99.90
52159;DHT22;38145;53.182;6.284;2023-04-24T07:42:09;9.20;99.90
52159;DHT22;38145;53.182;6.284;2023-04-24T07:44:34;9.20;99.90
52159;DHT22;38145;53.182;6.284;2023-04-24T07:47:01;9.10;99.90
52159;DHT22;38145;53.182;6.284;2023-04-24T07:49:27;9.10;99.90
52159;DHT22;38145;53.182;6.284;2023-04-24T07:51:53;9.10;99.90
52159;DHT22;38145;53.182;6.284;2023-04-24T07:54:19;9.00;99.90
52159;DHT22;38145;53.182;6.284;2023-04-24T07:56:45;9.10;99.90
52159;DHT22;38145;53.182;6.284;2023-04-24T07:59:11;9.10;99.90
52159;DHT22;38145;53.182;6.284;2023-04-24T08:01:37;9.00;99.90
52159;DHT22;38145;53.182;6.284;2023-04-24T08:04:03;9.00;99.90
52159;DHT22;38145;53.182;6.284;2023-04-24T08:06:29;9.00;99.90
52159;DHT22;38145;53.182;6.284;2023-04-24T08:08:56;9.00;99.90
52159;DHT22;38145;53.182;6.284;2023-04-24T08:11:22;9.00;99.90
52159;DHT22;38145;53.182;6.284;2023-04-24T08:13:48;9.10;99.90
52159;DHT22;38145;53.182;6.284;2023-04-24T08:16:14;9.00;99.90
52159;DHT22;38145;53.182;6.284;2023-04-24T08:18:40;8.90;99.90
52159;DHT22;38145;53.182;6.284;2023-04-24T08:21:06;8.90;99.90
52159;DHT22;38145;53.182;6.284;2023-04-24T08:23:31;8.90;99.90
52159;DHT22;38145;53.182;6.284;2023-04-24T08:25:58;8.80;99.90
52159;DHT22;38145;53.182;6.284;2023-04-24T08:28:24;8.90;99.90
52159;DHT22;38145;53.182;6.284;2023-04-24T08:30:51;8.90;99.90
52159;DHT22;38145;53.182;6.284;2023-04-24T08:33:22;8.80;99.90
52159;DHT22;38145;53.182;6.284;2023-04-24T08:35:48;8.80;99.90
52159;DHT22;38145;53.182;6.284;2023-04-24T08:38:16;8.80;99.90
52159;DHT22;38145;53.182;6.284;2023-04-24T08:40:42;8.80;99.90
52159;DHT22;38145;53.182;6.284;2023-04-24T08:43:10;8.80;99.90
52159;DHT22;38145;53.182;6.284;2023-04-24T08:45:36;8.80;99.90
52159;DHT22;38145;53.182;6.284;2023-04-24T08:48:04;8.90;99.90
52159;DHT22;38145;53.182;6.284;2023-04-24T08:50:32;8.90;99.90
52159;DHT22;38145;53.182;6.284;2023-04-24T08:52:58;8.90;99.90
52159;DHT22;38145;53.182;6.284;2023-04-24T08:55:25;9.00;99.90
52159;DHT22;38145;53.182;6.284;2023-04-24T08:57:52;8.90;99.90
52159;DHT22;38145;53.182;6.284;2023-04-24T09:00:21;8.90;99.90
52159;DHT22;38145;53.182;6.284;2023-04-24T09:02:50;9.00;99.90
52159;DHT22;38145;53.182;6.284;2023-04-24T09:05:17;9.10;99.90
52159;DHT22;38145;53.182;6.284;2023-04-24T09:07:45;9.10;99.90
52159;DHT22;38145;53.182;6.284;2023-04-24T09:10:15;9.10;99.90
52159;DHT22;38145;53.182;6.284;2023-04-24T09:12:42;9.20;99.90
52159;DHT22;38145;53.182;6.284;2023-04-24T09:15:08;9.20;99.90
52159;DHT22;38145;53.182;6.284;2023-04-24T09:17:35;9.10;99.90
52159;DHT22;38145;53.182;6.284;2023-04-24T09:20:02;9.10;99.90
52159;DHT22;38145;53.182;6.284;2023-04-24T09:22:30;9.10;99.90
52159;DHT22;38145;53.182;6.284;2023-04-24T09:25:03;8.90;99.90
52159;DHT22;38145;53.182;6.284;2023-04-24T09:27:30;8.90;99.90
52159;DHT22;38145;53.182;6.284;2023-04-24T09:29:57;8.90;99.90
52159;DHT22;38145;53.182;6.284;2023-04-24T09:32:23;9.00;99.90
52159;DHT22;38145;53.182;6.284;2023-04-24T09:37:41;9.00;99.90
52159;DHT22;38145;53.182;6.284;2023-04-24T09:40:16;9.00;99.90
52159;DHT22;38145;53.182;6.284;2023-04-24T09:42:52;9.10;99.90
52159;DHT22;38145;53.182;6.284;2023-04-24T09:45:18;9.20;99.90
52159;DHT22;38145;53.182;6.284;2023-04-24T09:47:45;9.40;99.90
52159;DHT22;38145;53.182;6.284;2023-04-24T09:50:13;9.50;99.90
52159;DHT22;38145;53.182;6.284;2023-04-24T09:52:40;9.60;99.90
52159;DHT22;38145;53.182;6.284;2023-04-24T09:55:16;9.60;99.90
52159;DHT22;38145;53.182;6.284;2023-04-24T09:57:49;9.70;99.90
52159;DHT22;38145;53.182;6.284;2023-04-24T10:05:24;9.80;99.90
52159;DHT22;38145;53.182;6.284;2023-04-24T10:07:50;9.80;99.90
52159;DHT22;38145;53.182;6.284;2023-04-24T10:10:16;9.70;99.90
52159;DHT22;38145;53.182;6.284;2023-04-24T10:12:43;9.70;99.90
52159;DHT22;38145;53.182;6.284;2023-04-24T10:15:10;9.70;99.90
52159;DHT22;38145;53.182;6.284;2023-04-24T10:17:39;9.60;99.90
52159;DHT22;38145;53.182;6.284;2023-04-24T10:20:06;9.60;99.90
52159;DHT22;38145;53.182;6.284;2023-04-24T10:22:32;9.70;99.90
52159;DHT22;38145;53.182;6.284;2023-04-24T10:24:59;9.80;99.90
52159;DHT22;38145;53.182;6.284;2023-04-24T10:27:26;9.70;99.90
52159;DHT22;38145;53.182;6.284;2023-04-24T10:29:53;9.70;99.90
52159;DHT22;38145;53.182;6.284;2023-04-24T10:32:19;9.70;99.90
52159;DHT22;38145;53.182;6.284;2023-04-24T10:34:45;9.70;99.90
52159;DHT22;38145;53.182;6.284;2023-04-24T10:37:11;9.70;99.90
52159;DHT22;38145;53.182;6.284;2023-04-24T10:39:36;9.70;99.90
52159;DHT22;38145;53.182;6.284;2023-04-24T10:42:15;9.70;99.90
52159;DHT22;38145;53.182;6.284;2023-04-24T10:44:41;9.80;99.90
52159;DHT22;38145;53.182;6.284;2023-04-24T10:47:13;9.80;99.90
52159;DHT22;38145;53.182;6.284;2023-04-24T10:49:39;9.80;99.90
52159;DHT22;38145;53.182;6.284;2023-04-24T10:52:05;9.80;99.90
52159;DHT22;38145;53.182;6.284;2023-04-24T10:54:44;9.80;99.90
52159;DHT22;38145;53.182;6.284;2023-04-24T10:59:44;9.90;99.90
52159;DHT22;38145;53.182;6.284;2023-04-24T11:02:10;9.90;99.90
52159;DHT22;38145;53.182;6.284;2023-04-24T11:04:36;9.80;99.90
52159;DHT22;38145;53.182;6.284;2023-04-24T11:07:03;9.70;99.90
52159;DHT22;38145;53.182;6.284;2023-04-24T11:09:32;9.80;99.90
52159;DHT22;38145;53.182;6.284;2023-04-24T11:12:05;9.70;99.90
52159;DHT22;38145;53.182;6.284;2023-04-24T11:17:32;9.60;99.90
52159;DHT22;38145;53.182;6.284;2023-04-24T11:20:04;9.70;99.90
52159;DHT22;38145;53.182;6.284;2023-04-24T11:22:33;9.70;99.90
52159;DHT22;38145;53.182;6.284;2023-04-24T11:25:01;9.70;99.90
52159;DHT22;38145;53.182;6.284;2023-04-24T11:27:30;9.70;99.90
52159;DHT22;38145;53.182;6.284;2023-04-24T11:32:28;9.80;99.90
52159;DHT22;38145;53.182;6.284;2023-04-24T11:34:56;9.70;99.90
52159;DHT22;38145;53.182;6.284;2023-04-24T11:37:24;9.60;99.90
52159;DHT22;38145;53.182;6.284;2023-04-24T11:39:52;9.50;99.90
52159;DHT22;38145;53.182;6.284;2023-04-24T11:42:18;9.30;99.90
52159;DHT22;38145;53.182;6.284;2023-04-24T11:44:46;9.20;99.90
52159;DHT22;38145;53.182;6.284;2023-04-24T11:47:13;9.10;99.90
52159;DHT22;38145;53.182;6.284;2023-04-24T11:49:38;9.00;99.90
52159;DHT22;38145;53.182;6.284;2023-04-24T11:52:05;9.00;99.90
52159;DHT22;38145;53.182;6.284;2023-04-24T11:54:32;9.00;99.90
52159;DHT22;38145;53.182;6.284;2023-04-24T11:56:58;8.90;99.90
52159;DHT22;38145;53.182;6.284;2023-04-24T11:59:23;9.00;99.90
52159;DHT22;38145;53.182;6.284;2023-04-24T12:01:50;9.10;99.90
52159;DHT22;38145;53.182;6.284;2023-04-24T12:04:17;9.20;99.90
52159;DHT22;38145;53.182;6.284;2023-04-24T12:07:00;9.30;99.90
52159;DHT22;38145;53.182;6.284;2023-04-24T12:09:26;9.40;99.90
52159;DHT22;38145;53.182;6.284;2023-04-24T12:11:55;9.50;99.90
52159;DHT22;38145;53.182;6.284;2023-04-24T12:14:22;9.60;99.90
52159;DHT22;38145;53.182;6.284;2023-04-24T12:16:49;9.60;99.90
52159;DHT22;38145;53.182;6.284;2023-04-24T12:19:21;9.60;99.90
52159;DHT22;38145;53.182;6.284;2023-04-24T12:22:00;9.60;99.90
52159;DHT22;38145;53.182;6.284;2023-04-24T12:24:26;9.50;99.90
52159;DHT22;38145;53.182;6.284;2023-04-24T12:26:52;9.40;99.90
52159;DHT22;38145;53.182;6.284;2023-04-24T12:29:20;9.40;99.90
52159;DHT22;38145;53.182;6.284;2023-04-24T12:31:46;9.50;99.90
52159;DHT22;38145;53.182;6.284;2023-04-24T12:34:19;9.60;99.90
52159;DHT22;38145;53.182;6.284;2023-04-24T12:36:47;9.80;99.90
52159;DHT22;38145;53.182;6.284;2023-04-24T12:39:18;9.80;99.90
52159;DHT22;38145;53.182;6.284;2023-04-24T12:41:56;9.70;99.90
52159;DHT22;38145;53.182;6.284;2023-04-24T12:44:31;9.60;99.90
52159;DHT22;38145;53.182;6.284;2023-04-24T12:46:57;9.60;99.90
52159;DHT22;38145;53.182;6.284;2023-04-24T12:49:23;9.60;99.90
52159;DHT22;38145;53.182;6.284;2023-04-24T12:51:50;9.60;99.90
52159;DHT22;38145;53.182;6.284;2023-04-24T12:54:16;9.60;99.90
52159;DHT22;38145;53.182;6.284;2023-04-24T12:56:42;9.70;99.90
52159;DHT22;38145;53.182;6.284;2023-04-24T12:59:07;9.70;99.90
52159;DHT22;38145;53.182;6.284;2023-04-24T13:01:33;9.70;99.90
52159;DHT22;38145;53.182;6.284;2023-04-24T13:03:59;9.80;99.90
52159;DHT22;38145;53.182;6.284;2023-04-24T13:06:25;9.80;99.90
52159;DHT22;38145;53.182;6.284;2023-04-24T13:08:52;9.80;99.90
52159;DHT22;38145;53.182;6.284;2023-04-24T13:11:18;9.90;99.90
52159;DHT22;38145;53.182;6.284;2023-04-24T13:13:43;9.90;99.90
52159;DHT22;38145;53.182;6.284;2023-04-24T13:16:09;9.90;99.90
52159;DHT22;38145;53.182;6.284;2023-04-24T13:18:36;9.90;99.90
52159;DHT22;38145;53.182;6.284;2023-04-24T13:21:01;10.00;99.90
52159;DHT22;38145;53.182;6.284;2023-04-24T13:23:27;10.00;99.90
52159;DHT22;38145;53.182;6.284;2023-04-24T13:25:53;9.90;99.90
52159;DHT22;38145;53.182;6.284;2023-04-24T13:28:22;9.90;99.90
52159;DHT22;38145;53.182;6.284;2023-04-24T13:30:48;9.90;99.90
52159;DHT22;38145;53.182;6.284;2023-04-24T13:33:14;9.90;99.90
52159;DHT22;38145;53.182;6.284;2023-04-24T13:35:40;9.80;99.90
52159;DHT22;38145;53.182;6.284;2023-04-24T13:38:06;9.80;99.90
52159;DHT22;38145;53.182;6.284;2023-04-24T13:40:33;9.80;99.90
52159;DHT22;38145;53.182;6.284;2023-04-24T13:42:59;9.70;99.90
52159;DHT22;38145;53.182;6.284;2023-04-24T13:45:24;9.70;99.90
52159;DHT22;38145;53.182;6.284;2023-04-24T13:47:50;9.70;99.90
52159;DHT22;38145;53.182;6.284;2023-04-24T13:50:16;9.60;99.90
52159;DHT22;38145;53.182;6.284;2023-04-24T13:52:42;9.50;99.90
52159;DHT22;38145;53.182;6.284;2023-04-24T13:55:08;9.40;99.90
52159;DHT22;38145;53.182;6.284;2023-04-24T13:57:34;9.30;99.90
52159;DHT22;38145;53.182;6.284;2023-04-24T14:00:00;9.20;99.90
52159;DHT22;38145;53.182;6.284;2023-04-24T14:02:29;9.20;99.90
52159;DHT22;38145;53.182;6.284;2023-04-24T14:04:55;9.20;99.90
52159;DHT22;38145;53.182;6.284;2023-04-24T14:07:21;9.20;99.90
52159;DHT22;38145;53.182;6.284;2023-04-24T14:09:47;9.20;99.90
52159;DHT22;38145;53.182;6.284;2023-04-24T14:12:13;9.10;99.90
52159;DHT22;38145;53.182;6.284;2023-04-24T14:14:39;9.20;99.90
52159;DHT22;38145;53.182;6.284;2023-04-24T14:17:05;9.20;99.90
52159;DHT22;38145;53.182;6.284;2023-04-24T14:19:32;9.40;99.90
52159;DHT22;38145;53.182;6.284;2023-04-24T14:21:58;9.50;99.90
52159;DHT22;38145;53.182;6.284;2023-04-24T14:24:23;9.60;99.90
52159;DHT22;38145;53.182;6.284;2023-04-24T14:26:49;9.70;99.90
52159;DHT22;38145;53.182;6.284;2023-04-24T14:29:15;9.60;99.90
52159;DHT22;38145;53.182;6.284;2023-04-24T14:31:42;9.50;99.90
52159;DHT22;38145;53.182;6.284;2023-04-24T14:34:09;9.60;99.90
52159;DHT22;38145;53.182;6.284;2023-04-24T14:36:35;9.50;99.90
52159;DHT22;38145;53.182;6.284;2023-04-24T14:39:01;9.50;99.90
52159;DHT22;38145;53.182;6.284;2023-04-24T14:41:31;9.60;99.90
52159;DHT22;38145;53.182;6.284;2023-04-24T14:43:59;9.50;99.90
52159;DHT22;38145;53.182;6.284;2023-04-24T14:46:25;9.50;99.90
52159;DHT22;38145;53.182;6.284;2023-04-24T14:48:52;9.30;99.90
52159;DHT22;38145;53.182;6.284;2023-04-24T14:51:18;9.30;99.90
52159;DHT22;38145;53.182;6.284;2023-04-24T14:53:44;9.20;99.90
52159;DHT22;38145;53.182;6.284;2023-04-24T14:56:12;9.30;99.90
52159;DHT22;38145;53.182;6.284;2023-04-24T14:58:38;9.30;99.90
52159;DHT22;38145;53.182;6.284;2023-04-24T15:01:04;9.30;99.90
52159;DHT22;38145;53.182;6.284;2023-04-24T15:03:30;9.30;99.90
52159;DHT22;38145;53.182;6.284;2023-04-24T15:05:56;9.30;99.90
52159;DHT22;38145;53.182;6.284;2023-04-24T15:08:22;9.20;99.90
52159;DHT22;38145;53.182;6.284;2023-04-24T15:10:48;9.20;99.90
52159;DHT22;38145;53.182;6.284;2023-04-24T15:13:14;9.10;99.90
52159;DHT22;38145;53.182;6.284;2023-04-24T15:15:40;9.20;99.90
52159;DHT22;38145;53.182;6.284;2023-04-24T15:18:08;9.30;99.90
52159;DHT22;38145;53.182;6.284;2023-04-24T15:20:36;9.30;99.90
52159;DHT22;38145;53.182;6.284;2023-04-24T15:23:05;9.30;99.90
52159;DHT22;38145;53.182;6.284;2023-04-24T15:25:31;9.30;99.90
52159;DHT22;38145;53.182;6.284;2023-04-24T15:27:58;9.30;99.90
52159;DHT22;38145;53.182;6.284;2023-04-24T15:30:24;9.20;99.90
52159;DHT22;38145;53.182;6.284;2023-04-24T15:32:50;9.10;99.90
52159;DHT22;38145;53.182;6.284;2023-04-24T15:35:16;9.00;99.90
52159;DHT22;38145;53.182;6.284;2023-04-24T15:37:43;9.10;99.90
52159;DHT22;38145;53.182;6.284;2023-04-24T15:40:10;9.10;99.90
52159;DHT22;38145;53.182;6.284;2023-04-24T15:42:40;9.10;99.90
52159;DHT22;38145;53.182;6.284;2023-04-24T15:45:06;9.10;99.90
52159;DHT22;38145;53.182;6.284;2023-04-24T15:47:32;9.00;99.90
52159;DHT22;38145;53.182;6.284;2023-04-24T15:49:58;8.90;99.90
52159;DHT22;38145;53.182;6.284;2023-04-24T15:52:24;9.00;99.90